Cariacica, Brazil
Current Conditions -  °F | °C
As of 12:00 PM on Saturday 25 Oct 2014 (Local Time) from SBVT Reporting Station
Few Clouds Few Clouds  
Wind Chill: 84°   Ceiling: Unl
Heat Index: 84°   Visibility: 6mi
Dew Point: 61°   Wind: 14mph
Humidity: 45%   Direction: 60°ENE
Pressure: 29.94"   Gusts: NA
Location:  20.23°S, 40.37°W
Report Text: SBVT 251400Z 06012KT 9999 FEW040 29/16 Q1014
Loading
Personal Weather Stations






























Interactive Weather Map
Tropical Storm Tracking
New forecast layout! Learn more

10-Day Weather Forecast

Advertisements
Track Severe Weather on mobile